createdAt,value
2023-02-16T00:00:13.645Z,42.52
2023-02-16T00:01:13.612Z,42.57
2023-02-16T00:02:13.661Z,43.06
2023-02-16T00:03:13.654Z,41.55
2023-02-16T00:04:13.601Z,43.43
2023-02-16T00:54:54.190Z,25.00
2023-02-16T00:55:55.131Z,25.00
2023-02-16T00:56:55.125Z,25.00
2023-02-16T00:57:55.112Z,25.00
2023-02-16T00:58:55.115Z,25.00
2023-02-16T00:59:55.094Z,25.00
2023-02-16T01:00:55.091Z,0.00
2023-02-16T01:01:55.202Z,0.00
2023-02-16T01:02:55.065Z,0.00
2023-02-16T01:03:55.053Z,0.00
2023-02-16T01:04:55.115Z,0.00
2023-02-16T01:05:55.041Z,0.00
2023-02-16T01:06:55.033Z,0.00
2023-02-16T01:07:55.032Z,0.00
2023-02-16T01:08:55.019Z,12.94
2023-02-16T01:09:55.003Z,25.26
2023-02-16T01:10:55.021Z,25.00
2023-02-16T01:11:54.996Z,25.00
2023-02-16T01:12:54.981Z,25.21
2023-02-16T01:13:54.969Z,25.13
2023-02-16T01:14:54.962Z,25.01
2023-02-16T01:15:55.030Z,25.81
2023-02-16T01:16:54.958Z,25.22
2023-02-16T01:17:54.934Z,25.35
2023-02-16T01:18:54.922Z,25.95
2023-02-16T01:19:54.940Z,25.00
2023-02-16T01:20:54.903Z,26.69
2023-02-16T01:21:54.896Z,27.31
2023-02-16T01:22:54.907Z,25.84
2023-02-16T01:23:54.883Z,25.00
2023-02-16T01:24:54.869Z,25.44
2023-02-16T01:25:54.875Z,25.00
2023-02-16T01:26:54.873Z,25.52
2023-02-16T01:27:54.851Z,26.10
2023-02-16T01:28:54.856Z,26.99
2023-02-16T01:29:54.865Z,26.38
2023-02-16T01:30:54.940Z,25.24
2023-02-16T01:31:54.979Z,25.67
2023-02-16T01:32:54.798Z,27.44
2023-02-16T01:33:54.786Z,25.61
2023-02-16T01:34:54.782Z,26.45
2023-02-16T01:35:54.770Z,27.16
2023-02-16T01:36:54.765Z,25.00
2023-02-16T01:37:54.763Z,27.04
2023-02-16T01:38:54.751Z,27.20
2023-02-16T01:39:54.734Z,25.95
2023-02-16T01:40:54.728Z,26.33
2023-02-16T01:41:54.718Z,26.52
2023-02-16T01:42:54.745Z,27.50
2023-02-16T01:43:54.702Z,27.19
2023-02-16T01:44:54.706Z,25.73
2023-02-16T01:45:54.688Z,26.02
2023-02-16T01:46:54.717Z,28.85
2023-02-16T01:47:54.665Z,25.73
2023-02-16T01:48:54.652Z,27.15
2023-02-16T01:49:54.676Z,27.09
2023-02-16T01:50:54.645Z,26.45
2023-02-16T01:51:54.638Z,27.72
2023-02-16T01:52:54.619Z,26.13
2023-02-16T01:53:54.608Z,25.91
2023-02-16T01:54:54.683Z,27.24
2023-02-16T01:55:54.589Z,25.78
2023-02-16T01:56:54.591Z,25.64
2023-02-16T01:57:54.580Z,25.91
2023-02-16T01:58:54.592Z,27.13
2023-02-16T01:59:54.563Z,25.33
2023-02-16T02:00:54.547Z,27.02
2023-02-16T02:01:54.595Z,25.89
2023-02-16T02:02:54.565Z,25.09
2023-02-16T02:03:54.528Z,28.50
2023-02-16T02:04:54.514Z,29.83
2023-02-16T02:05:54.504Z,28.52
2023-02-16T02:06:54.496Z,28.49
2023-02-16T02:07:54.497Z,28.99
2023-02-16T02:08:54.478Z,27.86
2023-02-16T02:09:54.471Z,27.87
2023-02-16T02:10:54.459Z,26.98
2023-02-16T02:11:54.454Z,27.59
2023-02-16T02:12:54.519Z,27.97
2023-02-16T02:13:54.442Z,28.30
2023-02-16T02:14:54.448Z,28.07
2023-02-16T02:15:54.429Z,26.19
2023-02-16T02:16:54.402Z,26.49
2023-02-16T02:17:54.401Z,28.43
2023-02-16T02:18:54.399Z,26.88
2023-02-16T02:19:54.383Z,28.54
2023-02-16T02:20:54.376Z,29.46
2023-02-16T02:21:54.371Z,28.51
2023-02-16T02:22:54.353Z,28.79
2023-02-16T02:23:54.345Z,28.99
2023-02-16T02:24:54.343Z,30.03
2023-02-16T02:25:54.327Z,28.41
2023-02-16T02:26:54.325Z,28.99
2023-02-16T02:27:54.318Z,29.76
2023-02-16T02:28:54.313Z,28.08
2023-02-16T02:29:54.333Z,28.08
2023-02-16T02:30:54.334Z,28.00
2023-02-16T02:31:54.472Z,28.02
2023-02-16T02:32:54.292Z,27.82
2023-02-16T02:33:54.264Z,27.73
2023-02-16T02:34:54.253Z,26.10
2023-02-16T02:35:54.250Z,26.69
2023-02-16T02:36:54.241Z,27.10
2023-02-16T02:37:54.237Z,28.20
2023-02-16T02:38:54.238Z,26.52
2023-02-16T02:39:54.216Z,25.62
2023-02-16T02:40:55.691Z,26.28
2023-02-16T02:41:54.350Z,25.42
2023-02-16T02:42:54.342Z,28.29
2023-02-16T02:43:54.337Z,27.88
2023-02-16T02:44:54.353Z,27.42
2023-02-16T02:45:54.315Z,26.74
2023-02-16T02:46:54.466Z,28.14
2023-02-16T02:47:54.302Z,27.33
2023-02-16T02:48:54.295Z,28.29
2023-02-16T02:49:54.327Z,28.82
2023-02-16T02:50:54.275Z,28.26
2023-02-16T02:51:54.278Z,28.36
2023-02-16T02:52:54.260Z,26.95
2023-02-16T02:53:54.247Z,28.74
2023-02-16T02:54:54.240Z,29.01
2023-02-16T02:55:54.230Z,26.47
2023-02-16T02:56:54.223Z,28.99
2023-02-16T02:57:54.218Z,27.56
2023-02-16T02:58:54.216Z,26.91
2023-02-16T02:59:54.198Z,28.95
2023-02-16T03:00:54.310Z,26.75
2023-02-16T03:01:54.219Z,28.83
2023-02-16T03:02:54.201Z,28.39
2023-02-16T03:03:54.165Z,28.48
2023-02-16T03:04:54.167Z,29.03
2023-02-16T03:05:54.153Z,28.62
2023-02-16T03:06:54.146Z,29.06
2023-02-16T03:07:54.125Z,29.78
2023-02-16T03:08:54.121Z,27.07
2023-02-16T03:09:54.110Z,28.61
2023-02-16T03:10:54.108Z,28.36
2023-02-16T03:11:54.095Z,30.28
2023-02-16T03:12:54.089Z,28.70
2023-02-16T03:13:54.090Z,29.73
2023-02-16T03:14:54.073Z,28.05
2023-02-16T03:15:54.052Z,30.37
2023-02-16T03:16:54.048Z,27.96
2023-02-16T03:17:54.039Z,29.41
2023-02-16T03:18:54.072Z,28.71
2023-02-16T03:19:54.033Z,29.10
2023-02-16T03:20:54.017Z,26.76
2023-02-16T03:21:54.025Z,28.44
2023-02-16T03:22:53.991Z,30.06
2023-02-16T03:23:53.988Z,28.84
2023-02-16T03:24:53.979Z,30.41
2023-02-16T03:25:53.984Z,29.21
2023-02-16T03:26:53.956Z,30.19
2023-02-16T03:27:53.970Z,30.44
2023-02-16T03:28:53.949Z,29.19
2023-02-16T03:29:54.494Z,27.33
2023-02-16T03:30:53.978Z,30.92
2023-02-16T03:31:53.978Z,29.11
2023-02-16T03:32:53.915Z,29.77
2023-02-16T03:33:53.896Z,29.26
2023-02-16T03:34:53.949Z,28.99
2023-02-16T03:35:53.882Z,30.62
2023-02-16T03:36:53.872Z,30.61
2023-02-16T03:37:53.862Z,30.07
2023-02-16T03:38:53.849Z,30.73
2023-02-16T03:39:53.858Z,30.61
2023-02-16T03:40:53.838Z,30.21
2023-02-16T03:41:53.835Z,30.32
2023-02-16T03:42:53.822Z,31.68
2023-02-16T03:43:53.810Z,30.27
2023-02-16T03:44:53.805Z,29.30
2023-02-16T03:45:53.869Z,29.32
2023-02-16T03:46:53.793Z,29.88
2023-02-16T03:47:53.778Z,31.40
2023-02-16T03:48:53.762Z,31.19
2023-02-16T03:49:53.767Z,31.68
2023-02-16T03:50:53.822Z,31.17
2023-02-16T03:51:53.743Z,30.39
2023-02-16T03:52:53.732Z,30.23
2023-02-16T03:53:53.721Z,30.12
2023-02-16T03:54:53.715Z,30.51
2023-02-16T03:55:53.706Z,31.27
2023-02-16T03:56:53.741Z,31.98
2023-02-16T03:57:53.692Z,29.38
2023-02-16T03:58:53.696Z,30.40
2023-02-16T03:59:53.666Z,31.52
2023-02-16T04:00:53.664Z,33.06
2023-02-16T04:01:53.709Z,31.34
2023-02-16T04:02:53.646Z,32.47
2023-02-16T04:03:53.719Z,31.33
2023-02-16T04:04:53.625Z,32.55
2023-02-16T04:05:53.614Z,31.79
2023-02-16T04:06:53.639Z,31.12
2023-02-16T04:07:53.603Z,30.92
2023-02-16T04:08:53.603Z,32.87
2023-02-16T04:09:53.591Z,32.45
2023-02-16T04:10:53.584Z,30.46
2023-02-16T04:11:53.569Z,31.27
2023-02-16T04:12:53.553Z,30.87
2023-02-16T04:13:53.557Z,32.08
2023-02-16T04:14:53.545Z,30.35
2023-02-16T04:15:53.543Z,32.44
2023-02-16T04:16:53.528Z,32.45
2023-02-16T04:17:53.515Z,31.71
2023-02-16T04:18:53.509Z,32.84
2023-02-16T04:19:53.502Z,32.79
2023-02-16T04:20:53.490Z,32.70
2023-02-16T04:21:53.500Z,32.01
2023-02-16T04:22:53.500Z,31.60
2023-02-16T04:23:53.469Z,31.65
2023-02-16T04:24:53.460Z,32.00
2023-02-16T04:25:53.460Z,33.12
2023-02-16T04:26:53.438Z,31.77
2023-02-16T04:27:53.429Z,31.52
2023-02-16T04:28:53.415Z,31.98
2023-02-16T04:29:53.420Z,32.81
2023-02-16T04:30:53.519Z,33.89
2023-02-16T04:31:53.496Z,32.59
2023-02-16T04:32:53.396Z,32.46
2023-02-16T04:33:53.373Z,30.93
2023-02-16T04:34:53.365Z,32.66
2023-02-16T04:35:53.356Z,31.33
2023-02-16T04:36:53.361Z,31.49
2023-02-16T04:37:53.342Z,33.19
2023-02-16T04:38:53.432Z,32.26
2023-02-16T04:39:53.328Z,32.64
2023-02-16T04:40:53.324Z,33.29
2023-02-16T04:41:53.307Z,33.55
2023-02-16T04:42:53.292Z,34.37
2023-02-16T04:43:53.286Z,34.78
2023-02-16T04:44:53.964Z,33.05
2023-02-16T04:45:53.338Z,31.80
2023-02-16T04:46:53.264Z,32.26
2023-02-16T04:47:53.269Z,32.91
2023-02-16T04:48:53.246Z,33.85
2023-02-16T04:49:53.253Z,32.94
2023-02-16T04:50:53.228Z,31.70
2023-02-16T04:51:53.218Z,33.99
2023-02-16T04:52:53.209Z,32.46
2023-02-16T04:53:53.208Z,34.02
2023-02-16T04:54:53.219Z,33.97
2023-02-16T04:55:53.183Z,33.85
2023-02-16T04:56:53.168Z,32.81
2023-02-16T04:57:53.165Z,33.62
2023-02-16T04:58:53.160Z,34.37
2023-02-16T04:59:53.149Z,34.58
2023-02-16T05:00:53.138Z,35.43
2023-02-16T05:01:53.311Z,35.17
2023-02-16T05:02:53.146Z,36.25
2023-02-16T05:03:53.114Z,34.28
2023-02-16T05:04:53.238Z,36.54
2023-02-16T05:05:53.097Z,34.41
2023-02-16T05:06:53.099Z,35.21
2023-02-16T05:07:53.071Z,33.74
2023-02-16T05:08:53.067Z,34.10
2023-02-16T05:09:53.061Z,35.58
2023-02-16T05:10:53.081Z,36.05
2023-02-16T05:11:53.042Z,35.94
2023-02-16T05:12:53.042Z,35.92
2023-02-16T05:13:53.026Z,34.51
2023-02-16T05:14:53.034Z,36.15
2023-02-16T05:15:53.094Z,35.56
2023-02-16T05:16:52.994Z,36.11
2023-02-16T05:17:52.997Z,37.85
2023-02-16T05:18:53.004Z,36.69
2023-02-16T05:19:52.971Z,35.24
2023-02-16T05:20:52.971Z,35.74
2023-02-16T05:21:52.957Z,37.56
2023-02-16T05:22:52.939Z,34.34
2023-02-16T05:23:52.933Z,35.63
2023-02-16T05:24:52.931Z,36.29
2023-02-16T05:25:52.922Z,35.77
2023-02-16T05:26:52.935Z,35.98
2023-02-16T05:27:52.974Z,37.07
2023-02-16T05:28:52.900Z,35.25
2023-02-16T05:29:52.944Z,35.36
2023-02-16T05:30:52.912Z,36.27
2023-02-16T05:31:53.001Z,37.57
2023-02-16T05:32:52.860Z,36.04
2023-02-16T05:33:52.849Z,36.84
2023-02-16T05:34:52.839Z,36.07
2023-02-16T05:35:52.833Z,37.22
2023-02-16T05:36:52.821Z,36.10
2023-02-16T05:37:52.813Z,37.29
2023-02-16T05:38:52.809Z,36.00
2023-02-16T05:39:52.835Z,38.12
2023-02-16T05:40:52.793Z,36.66
2023-02-16T05:41:52.782Z,38.20
2023-02-16T05:42:52.889Z,35.33
2023-02-16T05:43:52.765Z,37.18
2023-02-16T05:44:52.764Z,38.78
2023-02-16T05:45:52.770Z,40.32
2023-02-16T05:46:52.737Z,37.67
2023-02-16T05:47:52.734Z,40.88
2023-02-16T05:48:52.740Z,39.42
2023-02-16T05:49:52.719Z,40.03
2023-02-16T05:50:52.703Z,37.68
2023-02-16T05:51:52.694Z,39.08
2023-02-16T05:52:52.684Z,39.64
2023-02-16T05:53:52.692Z,39.94
2023-02-16T05:54:52.669Z,41.00
2023-02-16T05:55:52.662Z,38.74
2023-02-16T05:56:52.681Z,40.55
2023-02-16T05:57:52.651Z,39.72
2023-02-16T05:58:52.661Z,39.04
2023-02-16T05:59:52.626Z,39.83
2023-02-16T06:00:52.616Z,39.34
2023-02-16T06:01:52.822Z,41.89
2023-02-16T06:02:52.652Z,39.57
2023-02-16T06:03:52.716Z,39.82
2023-02-16T06:04:52.598Z,40.06
2023-02-16T06:05:52.571Z,39.61
2023-02-16T06:06:52.574Z,40.19
2023-02-16T06:07:52.556Z,42.25
2023-02-16T06:08:52.547Z,41.14
2023-02-16T06:09:52.549Z,40.60
2023-02-16T06:10:52.532Z,40.84
2023-02-16T06:11:52.525Z,40.65
2023-02-16T06:12:52.510Z,39.68
2023-02-16T06:13:52.500Z,40.61
2023-02-16T06:14:52.545Z,41.03
2023-02-16T06:15:52.579Z,39.89
2023-02-16T06:16:52.506Z,40.75
2023-02-16T06:17:52.472Z,40.20
2023-02-16T06:18:52.477Z,41.18
2023-02-16T06:19:52.461Z,39.82
2023-02-16T06:20:52.447Z,40.93
2023-02-16T06:21:52.437Z,39.91
2023-02-16T06:22:52.432Z,41.52
2023-02-16T06:23:52.426Z,40.32
2023-02-16T06:24:52.424Z,39.11
2023-02-16T06:25:52.425Z,40.56
2023-02-16T06:26:52.414Z,40.42
2023-02-16T06:27:52.388Z,39.85
2023-02-16T06:28:52.368Z,38.96
2023-02-16T06:29:52.404Z,41.15
2023-02-16T06:30:52.393Z,41.38
2023-02-16T06:31:52.479Z,41.63
2023-02-16T06:32:52.336Z,40.75
2023-02-16T06:33:52.332Z,40.31
2023-02-16T06:34:52.330Z,41.69
2023-02-16T06:35:52.307Z,40.91
2023-02-16T06:36:52.313Z,40.23
2023-02-16T06:37:52.296Z,40.49
2023-02-16T06:38:52.281Z,41.16
2023-02-16T06:39:52.278Z,39.72
2023-02-16T06:40:52.267Z,38.53
2023-02-16T06:41:52.259Z,40.32
2023-02-16T06:42:52.246Z,41.15
2023-02-16T06:43:52.238Z,40.98
2023-02-16T06:44:52.227Z,40.84
2023-02-16T06:45:52.226Z,39.36
2023-02-16T06:46:52.300Z,42.56
2023-02-16T06:47:52.203Z,40.01
2023-02-16T06:48:52.202Z,40.25
2023-02-16T06:49:52.182Z,40.27
2023-02-16T06:50:52.201Z,41.87
2023-02-16T06:51:52.164Z,41.94
2023-02-16T06:52:52.162Z,40.35
2023-02-16T06:53:52.153Z,42.88
2023-02-16T06:54:52.140Z,42.78
2023-02-16T06:55:52.137Z,42.74
2023-02-16T06:56:52.126Z,42.02
2023-02-16T06:57:52.115Z,43.28
2023-02-16T06:58:52.107Z,43.23
2023-02-16T06:59:52.097Z,41.53
2023-02-16T07:00:52.098Z,43.11
2023-02-16T07:01:52.079Z,43.72
2023-02-16T07:02:52.100Z,42.69
2023-02-16T07:03:52.068Z,44.99
2023-02-16T07:04:52.052Z,41.70
2023-02-16T07:05:52.040Z,45.63
2023-02-16T07:06:52.030Z,41.64
2023-02-16T07:07:52.021Z,44.00
2023-02-16T07:08:52.012Z,43.19
2023-02-16T07:09:52.012Z,43.51
2023-02-16T07:10:52.003Z,43.34
2023-02-16T07:11:51.983Z,40.62
2023-02-16T07:12:51.978Z,44.34
2023-02-16T07:13:52.015Z,42.18
2023-02-16T07:14:51.962Z,41.96
2023-02-16T07:15:52.060Z,42.92
2023-02-16T07:16:51.943Z,41.41
2023-02-16T07:17:51.947Z,43.05
2023-02-16T07:18:51.952Z,43.53
2023-02-16T07:19:51.918Z,42.24
2023-02-16T07:20:51.914Z,40.29
2023-02-16T07:21:51.901Z,43.25
2023-02-16T07:22:51.889Z,41.00
2023-02-16T07:23:51.889Z,42.29
2023-02-16T07:24:51.877Z,43.57
2023-02-16T07:25:51.865Z,43.23
2023-02-16T07:26:51.860Z,43.13
2023-02-16T07:27:51.842Z,41.89
2023-02-16T07:28:51.833Z,42.74
2023-02-16T07:29:51.895Z,43.55
2023-02-16T07:30:51.900Z,41.45
2023-02-16T07:31:51.921Z,41.65
2023-02-16T07:32:51.808Z,42.80
2023-02-16T07:33:51.790Z,41.12
2023-02-16T07:34:51.806Z,43.48
2023-02-16T07:35:51.773Z,43.09
2023-02-16T07:36:51.766Z,44.23
2023-02-16T07:37:51.768Z,41.00
2023-02-16T07:38:51.752Z,41.19
2023-02-16T07:39:51.743Z,43.09
2023-02-16T07:40:51.728Z,42.95
2023-02-16T07:41:51.727Z,43.71
2023-02-16T07:42:51.706Z,42.22
2023-02-16T07:43:51.702Z,43.35
2023-02-16T07:44:51.693Z,42.08
2023-02-16T07:45:51.720Z,44.24
2023-02-16T07:46:51.677Z,43.56
2023-02-16T07:47:51.666Z,43.59
2023-02-16T07:48:51.660Z,43.89
2023-02-16T07:49:51.643Z,43.44
2023-02-16T07:50:51.660Z,43.84
2023-02-16T07:51:51.636Z,43.80
2023-02-16T07:52:51.621Z,43.07
2023-02-16T07:53:51.610Z,44.23
2023-02-16T07:54:51.608Z,42.69
2023-02-16T07:55:51.593Z,42.00
2023-02-16T07:56:51.584Z,41.81
2023-02-16T07:57:51.604Z,43.02
2023-02-16T07:58:51.574Z,44.15
2023-02-16T07:59:51.561Z,44.46
2023-02-16T08:00:51.550Z,44.97
2023-02-16T08:01:51.625Z,45.14
2023-02-16T08:02:51.645Z,43.46
2023-02-16T08:03:51.535Z,44.77
2023-02-16T08:04:51.510Z,44.21
2023-02-16T08:05:51.505Z,45.70
2023-02-16T08:06:51.578Z,45.99
2023-02-16T08:07:51.489Z,43.43
2023-02-16T08:08:51.480Z,45.61
2023-02-16T08:09:51.470Z,42.51
2023-02-16T08:10:51.464Z,45.59
2023-02-16T08:11:51.457Z,45.18
2023-02-16T08:12:51.447Z,44.97
2023-02-16T08:13:51.436Z,44.75
2023-02-16T08:14:51.433Z,44.12
2023-02-16T08:15:51.422Z,45.46
2023-02-16T08:16:54.812Z,46.26
2023-02-16T08:17:51.400Z,46.51
2023-02-16T08:18:51.399Z,46.67
2023-02-16T08:19:51.380Z,46.52
2023-02-16T08:21:03.872Z,46.01
2023-02-16T08:21:51.379Z,46.59
2023-02-16T08:22:51.385Z,47.42
2023-02-16T08:23:51.351Z,47.22
2023-02-16T08:24:51.354Z,47.86
2023-02-16T08:25:51.337Z,46.82
2023-02-16T08:26:51.339Z,47.31
2023-02-16T08:27:51.317Z,48.00
2023-02-16T08:28:51.305Z,47.18
2023-02-16T08:29:51.297Z,46.14
2023-02-16T08:30:51.389Z,46.83
2023-02-16T08:31:51.430Z,46.18
2023-02-16T08:32:51.271Z,46.11
2023-02-16T08:33:51.259Z,45.83
2023-02-16T08:34:51.254Z,45.41
2023-02-16T08:35:51.244Z,46.42
2023-02-16T08:36:51.260Z,46.08
2023-02-16T08:37:51.228Z,46.90
2023-02-16T08:38:51.250Z,45.56
2023-02-16T08:39:51.213Z,44.40
2023-02-16T08:40:51.204Z,46.61
2023-02-16T08:41:51.188Z,46.72
2023-02-16T08:42:51.182Z,47.62
2023-02-16T08:43:51.205Z,45.63
2023-02-16T08:44:51.242Z,47.21
2023-02-16T08:45:51.184Z,47.57
2023-02-16T08:46:51.149Z,47.92
2023-02-16T08:47:51.137Z,47.32
2023-02-16T08:48:51.124Z,47.66
2023-02-16T08:49:51.131Z,47.19
2023-02-16T08:50:51.114Z,48.31
2023-02-16T08:51:51.102Z,47.81
2023-02-16T08:52:51.978Z,49.49
2023-02-16T08:53:51.117Z,48.57
2023-02-16T08:54:51.099Z,48.82
2023-02-16T08:55:51.067Z,48.15
2023-02-16T08:56:51.057Z,48.29
2023-02-16T08:57:51.048Z,49.13
2023-02-16T08:58:51.056Z,49.28
2023-02-16T08:59:51.038Z,49.01
2023-02-16T09:00:51.098Z,47.46
2023-02-16T09:01:51.018Z,47.49
2023-02-16T09:02:51.075Z,49.33
2023-02-16T09:03:50.997Z,46.33
2023-02-16T09:04:50.993Z,48.82
2023-02-16T09:05:50.985Z,49.08
2023-02-16T09:06:50.976Z,47.59
2023-02-16T09:07:50.960Z,48.96
2023-02-16T09:08:50.958Z,48.07
2023-02-16T09:09:50.944Z,49.36
2023-02-16T09:10:50.963Z,49.10
2023-02-16T09:11:50.933Z,49.26
2023-02-16T09:12:50.929Z,50.19
2023-02-16T09:13:50.924Z,49.01
2023-02-16T09:14:50.904Z,49.06
2023-02-16T09:15:50.894Z,49.65
2023-02-16T09:16:50.892Z,48.21
2023-02-16T09:17:50.886Z,47.99
2023-02-16T09:18:50.879Z,48.38
2023-02-16T09:19:50.873Z,50.49
2023-02-16T09:20:50.851Z,46.99
2023-02-16T09:21:51.122Z,49.01
2023-02-16T09:22:50.844Z,48.29
2023-02-16T09:23:51.579Z,48.55
2023-02-16T09:24:50.816Z,49.44
2023-02-16T09:25:50.806Z,49.39
2023-02-16T09:26:50.820Z,48.99
2023-02-16T09:27:50.792Z,47.71
2023-02-16T09:28:50.792Z,47.84
2023-02-16T09:29:50.770Z,49.63
2023-02-16T09:30:50.838Z,49.44
2023-02-16T09:31:50.804Z,46.57
2023-02-16T09:32:50.798Z,49.02
2023-02-16T09:33:50.746Z,49.65
2023-02-16T09:34:50.727Z,50.42
2023-02-16T09:35:50.721Z,48.49
2023-02-16T09:36:50.732Z,50.01
2023-02-16T09:37:50.703Z,46.24
2023-02-16T09:38:50.691Z,47.79
2023-02-16T09:39:50.684Z,48.76
2023-02-16T09:40:50.676Z,50.40
2023-02-16T09:41:50.668Z,50.49
2023-02-16T09:42:50.679Z,51.80
2023-02-16T09:43:50.654Z,51.80
2023-02-16T09:44:50.648Z,50.47
2023-02-16T09:45:50.658Z,49.19
2023-02-16T09:46:50.627Z,49.52
2023-02-16T09:47:50.624Z,48.90
2023-02-16T09:48:50.615Z,48.71
2023-02-16T09:49:50.603Z,48.47
2023-02-16T09:50:54.298Z,50.42
2023-02-16T09:51:50.579Z,50.68
2023-02-16T09:52:52.456Z,50.67
2023-02-16T09:53:50.600Z,51.97
2023-02-16T09:54:50.554Z,53.19
2023-02-16T09:55:50.562Z,50.23
2023-02-16T09:56:50.537Z,51.26
2023-02-16T09:57:50.537Z,50.23
2023-02-16T09:58:50.568Z,46.08
2023-02-16T09:59:50.513Z,48.15
2023-02-16T10:00:50.501Z,49.24
2023-02-16T10:01:50.500Z,48.35
2023-02-16T10:02:50.517Z,49.39
2023-02-16T10:03:50.476Z,51.29
2023-02-16T10:04:50.475Z,48.74
2023-02-16T10:05:50.460Z,49.07
2023-02-16T10:06:50.454Z,49.14
2023-02-16T10:07:50.440Z,48.90
2023-02-16T10:08:50.430Z,50.20
2023-02-16T10:09:50.420Z,49.47
2023-02-16T10:10:50.416Z,48.51
2023-02-16T10:11:50.407Z,47.55
2023-02-16T10:12:50.400Z,45.90
2023-02-16T10:13:50.387Z,50.85
2023-02-16T10:14:50.424Z,48.55
2023-02-16T10:15:51.878Z,48.83
2023-02-16T10:16:50.359Z,49.15
2023-02-16T10:17:50.361Z,49.25
2023-02-16T10:18:50.351Z,49.21
2023-02-16T10:19:50.338Z,50.35
2023-02-16T10:20:50.333Z,50.62
2023-02-16T10:21:50.320Z,48.84
2023-02-16T10:22:50.317Z,50.08
2023-02-16T10:23:50.306Z,48.32
2023-02-16T10:24:50.294Z,49.18
2023-02-16T10:25:50.288Z,49.43
2023-02-16T10:26:50.282Z,47.93
2023-02-16T10:27:50.268Z,48.88
2023-02-16T10:28:50.277Z,48.72
2023-02-16T10:29:50.252Z,50.07
2023-02-16T10:30:50.461Z,48.66
2023-02-16T10:31:50.372Z,47.43
2023-02-16T10:32:50.225Z,50.14
2023-02-16T10:33:50.220Z,48.36
2023-02-16T10:34:50.236Z,48.87
2023-02-16T10:35:50.202Z,47.91
2023-02-16T10:36:50.191Z,47.38
2023-02-16T10:37:50.185Z,49.21
2023-02-16T10:38:50.175Z,47.10
2023-02-16T10:39:50.181Z,47.32
2023-02-16T10:40:50.171Z,46.88
2023-02-16T10:41:50.154Z,50.03
2023-02-16T10:42:50.152Z,49.38
2023-02-16T10:43:50.132Z,48.03
2023-02-16T10:44:50.129Z,48.09
2023-02-16T10:45:52.335Z,48.44
2023-02-16T10:46:50.137Z,48.59
2023-02-16T10:47:50.105Z,48.89
2023-02-16T10:48:50.096Z,49.01
2023-02-16T10:49:50.086Z,48.20
2023-02-16T10:50:50.083Z,46.21
2023-02-16T10:51:50.075Z,44.57
2023-02-16T10:52:50.059Z,47.60
2023-02-16T10:53:50.048Z,47.06
2023-02-16T10:54:50.040Z,48.02
2023-02-16T10:55:50.032Z,46.58
2023-02-16T10:56:50.030Z,47.72
2023-02-16T10:57:50.028Z,46.40
2023-02-16T10:58:50.004Z,47.79
2023-02-16T10:59:49.994Z,46.34
2023-02-16T11:00:49.990Z,44.32
2023-02-16T11:01:50.108Z,46.54
2023-02-16T11:02:50.002Z,48.11
2023-02-16T11:03:49.973Z,47.86
2023-02-16T11:04:50.068Z,45.39
2023-02-16T11:05:49.953Z,45.57
2023-02-16T11:06:49.937Z,47.31
2023-02-16T11:07:49.930Z,44.62
2023-02-16T11:08:49.955Z,41.68
2023-02-16T11:09:49.917Z,46.37
2023-02-16T11:10:49.906Z,45.57
2023-02-16T11:11:49.955Z,45.70
2023-02-16T11:12:49.899Z,45.86
2023-02-16T11:13:49.881Z,45.25
2023-02-16T11:14:49.883Z,44.03
2023-02-16T11:15:49.860Z,46.40
2023-02-16T11:16:49.851Z,45.69
2023-02-16T11:17:49.890Z,48.43
2023-02-16T11:18:49.898Z,46.96
2023-02-16T11:19:49.829Z,44.50
2023-02-16T11:20:49.814Z,44.53
2023-02-16T11:21:49.810Z,46.51
2023-02-16T11:22:49.801Z,46.82
2023-02-16T11:23:49.798Z,46.35
2023-02-16T11:24:49.797Z,43.60
2023-02-16T11:25:49.779Z,43.29
2023-02-16T11:26:49.771Z,42.85
2023-02-16T11:27:49.760Z,45.37
2023-02-16T11:28:49.755Z,47.72
2023-02-16T11:29:49.742Z,44.56
2023-02-16T11:30:49.926Z,44.35
2023-02-16T11:31:49.864Z,45.82
2023-02-16T11:32:49.721Z,45.61
2023-02-16T11:33:49.710Z,45.32
2023-02-16T11:34:49.728Z,43.63
2023-02-16T11:35:49.709Z,43.54
2023-02-16T11:36:49.680Z,44.58
2023-02-16T11:37:49.676Z,44.43
2023-02-16T11:38:49.665Z,44.22
2023-02-16T11:39:49.660Z,43.44
2023-02-16T11:40:49.650Z,43.16
2023-02-16T11:41:49.638Z,44.38
2023-02-16T11:42:49.634Z,43.36
2023-02-16T11:43:49.611Z,42.25
2023-02-16T11:44:49.615Z,43.60
2023-02-16T11:45:49.603Z,43.38
2023-02-16T11:46:49.625Z,45.08
2023-02-16T11:47:49.581Z,45.27
2023-02-16T11:48:49.569Z,41.55
2023-02-16T11:49:49.560Z,43.16
2023-02-16T11:50:49.576Z,44.18
2023-02-16T11:51:49.550Z,43.75
2023-02-16T11:52:49.559Z,40.82
2023-02-16T11:53:49.524Z,43.35
2023-02-16T11:54:50.137Z,45.19
2023-02-16T11:55:49.510Z,43.99
2023-02-16T11:56:49.510Z,42.93
2023-02-16T11:57:49.488Z,42.59
2023-02-16T11:58:49.481Z,44.40
2023-02-16T11:59:49.471Z,44.10
2023-02-16T12:00:49.473Z,43.93
2023-02-16T12:01:49.456Z,44.65
2023-02-16T12:02:50.141Z,42.67
2023-02-16T12:03:49.492Z,44.40
2023-02-16T12:04:49.427Z,38.64
2023-02-16T12:05:49.428Z,42.13
2023-02-16T12:06:49.437Z,41.09
2023-02-16T12:07:49.443Z,43.13
2023-02-16T12:08:49.400Z,44.21
2023-02-16T12:09:49.398Z,40.65
2023-02-16T12:10:49.381Z,40.21
2023-02-16T12:11:49.379Z,41.61
2023-02-16T12:12:49.360Z,43.29
2023-02-16T12:13:49.357Z,42.79
2023-02-16T12:14:49.353Z,39.61
2023-02-16T12:15:49.340Z,43.03
2023-02-16T12:16:49.325Z,41.08
2023-02-16T12:17:49.360Z,42.95
2023-02-16T12:18:49.318Z,43.60
2023-02-16T12:19:49.298Z,42.62
2023-02-16T12:20:49.287Z,41.95
2023-02-16T12:21:49.287Z,40.39
2023-02-16T12:22:49.366Z,43.69
2023-02-16T12:23:49.268Z,40.62
2023-02-16T12:24:49.260Z,38.20
2023-02-16T12:25:49.254Z,41.78
2023-02-16T12:26:49.245Z,40.74
2023-02-16T12:27:49.228Z,40.76
2023-02-16T12:28:49.228Z,40.10
2023-02-16T12:29:49.218Z,41.32
2023-02-16T12:30:49.234Z,41.18
2023-02-16T12:31:49.262Z,41.18
2023-02-16T12:32:49.187Z,40.45
2023-02-16T12:33:49.181Z,41.83
2023-02-16T12:34:49.167Z,39.36
2023-02-16T12:35:49.165Z,42.44
2023-02-16T12:36:49.146Z,42.44
2023-02-16T12:37:49.148Z,40.71
2023-02-16T12:38:49.164Z,42.26
2023-02-16T12:39:49.120Z,42.07
2023-02-16T12:40:49.130Z,41.69
2023-02-16T12:41:49.113Z,42.82
2023-02-16T12:42:49.102Z,39.44
2023-02-16T12:43:49.085Z,40.74
2023-02-16T12:44:49.086Z,40.57
2023-02-16T12:45:49.184Z,39.75
2023-02-16T12:46:49.070Z,40.55
2023-02-16T12:47:49.054Z,40.71
2023-02-16T12:48:49.044Z,41.57
2023-02-16T12:49:49.032Z,40.76
2023-02-16T12:50:49.023Z,40.22
2023-02-16T12:51:49.041Z,42.34
2023-02-16T12:52:49.007Z,38.68
2023-02-16T12:53:49.002Z,41.22
2023-02-16T12:54:49.014Z,40.66
2023-02-16T12:55:48.981Z,41.66
2023-02-16T12:56:48.991Z,41.91
2023-02-16T12:57:48.988Z,41.53
2023-02-16T12:58:48.957Z,40.41
2023-02-16T12:59:48.951Z,39.26
2023-02-16T13:00:48.981Z,41.20
2023-02-16T13:01:48.934Z,38.65
2023-02-16T13:02:48.926Z,39.59
2023-02-16T13:03:48.957Z,39.22
2023-02-16T13:04:48.908Z,42.25
2023-02-16T13:05:48.950Z,39.38
2023-02-16T13:06:48.887Z,41.26
2023-02-16T13:07:48.885Z,40.19
2023-02-16T13:08:48.884Z,39.31
2023-02-16T13:09:48.864Z,42.25
2023-02-16T13:10:48.885Z,41.53
2023-02-16T13:11:48.913Z,41.01
2023-02-16T13:12:48.843Z,38.57
2023-02-16T13:13:48.840Z,42.57
2023-02-16T13:14:48.827Z,40.45
2023-02-16T13:15:48.814Z,43.08
2023-02-16T13:16:48.855Z,40.55
2023-02-16T13:17:48.827Z,38.93
2023-02-16T13:18:48.795Z,43.03
2023-02-16T13:19:48.795Z,39.06
2023-02-16T13:20:48.781Z,38.77
2023-02-16T13:21:51.652Z,40.85
2023-02-16T13:22:48.769Z,41.17
2023-02-16T13:23:48.747Z,41.01
2023-02-16T13:24:48.750Z,41.27
2023-02-16T13:25:49.014Z,42.20
2023-02-16T13:26:48.844Z,38.26
2023-02-16T13:27:48.718Z,40.37
2023-02-16T13:28:48.846Z,38.68
2023-02-16T13:29:48.698Z,39.56
2023-02-16T13:30:48.946Z,41.98
2023-02-16T13:31:48.827Z,39.53
2023-02-16T13:32:48.669Z,40.16
2023-02-16T13:33:48.663Z,40.79
2023-02-16T13:34:48.662Z,38.18
2023-02-16T13:35:48.656Z,41.77
2023-02-16T13:36:48.639Z,40.92
2023-02-16T13:37:48.626Z,38.00
2023-02-16T13:38:48.619Z,38.19
2023-02-16T13:39:48.611Z,38.19
2023-02-16T13:40:48.607Z,39.57
2023-02-16T13:41:48.599Z,39.94